Time;durP1;ratioP1;P1;durP2;ratioP2;P2;SDS_P1;SDS_P2;PMS_P1;PMS_P2;Temp;Humidity;BMP_temperature;BMP_pressure;BME280_temperature;BME280_humidity;BME280_pressure;Samples;Min_cycle;Max_cycle;Signal;HPM_P1;HPM_P2
2024/02/02 00:00:47;;;;;;;6.18;4.15;;;;;;;;;;5017220;28;20208;-75
2024/02/02 00:03:15;;;;;;;6.38;4.78;;;2.90;99.90;;;;;;5032997;28;20724;-75
2024/02/02 00:05:42;;;;;;;7.22;5.25;;;3.30;99.90;;;;;;5023771;28;20635;-75
2024/02/02 00:08:09;;;;;;;7.57;5.30;;;3.10;99.90;;;;;;5024245;28;20334;-75
2024/02/02 00:10:36;;;;;;;6.38;5.25;;;3.20;99.90;;;;;;5021825;28;20199;-75
2024/02/02 00:13:03;;;;;;;7.25;5.68;;;;;;;;;;5031699;28;20215;-75
2024/02/02 00:15:30;;;;;;;5.07;4.15;;;3.00;99.90;;;;;;5031394;28;20802;-75
2024/02/02 00:17:58;;;;;;;7.35;5.57;;;3.50;99.90;;;;;;5032624;28;20238;-75
2024/02/02 00:20:26;;;;;;;4.93;4.38;;;3.20;99.90;;;;;;5024002;28;20205;-75
2024/02/02 00:22:53;;;;;;;9.20;4.85;;;3.30;99.90;;;;;;5028001;28;20701;-75
2024/02/02 00:25:20;;;;;;;7.68;5.30;;;;;;;;;;5022300;28;20288;-75
2024/02/02 00:27:47;;;;;;;6.60;4.10;;;;;;;;;;5015395;28;20558;-75
2024/02/02 00:30:15;;;;;;;9.90;5.15;;;3.90;99.90;;;;;;5021577;28;20661;-75
2024/02/02 00:32:44;;;;;;;4.82;3.90;;;3.30;99.90;;;;;;5017176;28;20266;-75
2024/02/02 00:35:12;;;;;;;11.85;4.43;;;3.20;99.90;;;;;;5018120;28;20200;-75
2024/02/02 00:37:41;;;;;;;8.05;5.10;;;3.10;99.90;;;;;;5018005;28;20216;-75
2024/02/02 00:40:09;;;;;;;5.60;4.03;;;3.20;99.90;;;;;;5027363;28;20219;-75
2024/02/02 00:42:37;;;;;;;6.70;4.68;;;3.10;99.90;;;;;;5025123;28;20220;-75
2024/02/02 00:45:04;;;;;;;4.75;3.70;;;3.10;99.90;;;;;;5016270;28;20617;-75
2024/02/02 00:47:31;;;;;;;5.45;4.05;;;;;;;;;;5026040;28;20238;-75
2024/02/02 00:49:59;;;;;;;4.90;3.80;;;;;;;;;;5026136;28;20210;-75
2024/02/02 00:52:26;;;;;;;5.38;4.30;;;;;;;;;;5021644;28;20249;-75
2024/02/02 00:54:54;;;;;;;11.05;4.43;;;2.90;99.90;;;;;;5022202;28;20289;-75
2024/02/02 00:57:21;;;;;;;4.90;3.55;;;3.00;99.90;;;;;;5026706;28;20202;-75
2024/02/02 00:59:50;;;;;;;5.15;4.30;;;;;;;;;;5025494;28;20239;-75
2024/02/02 01:02:17;;;;;;;3.92;3.33;;;;;;;;;;5022309;28;20200;-75
2024/02/02 01:04:44;;;;;;;11.90;4.05;;;3.10;99.90;;;;;;5027859;28;20212;-75
2024/02/02 01:07:11;;;;;;;6.72;4.60;;;3.10;99.90;;;;;;5026447;28;20317;-75
2024/02/02 01:09:38;;;;;;;4.07;3.58;;;3.00;99.90;;;;;;5022772;28;20289;-75
2024/02/02 01:12:08;;;;;;;5.43;4.47;;;3.10;99.90;;;;;;5016665;28;20351;-75
2024/02/02 01:14:35;;;;;;;4.68;3.45;;;2.90;99.90;;;;;;5029591;28;20282;-75
2024/02/02 01:17:03;;;;;;;6.68;4.85;;;2.90;99.90;;;;;;5026319;28;20196;-75
2024/02/02 01:19:30;;;;;;;5.25;4.75;;;;;;;;;;5020038;28;20208;-75
2024/02/02 01:21:57;;;;;;;11.55;5.53;;;;;;;;;;5027793;28;20210;-75
2024/02/02 01:24:24;;;;;;;5.68;4.10;;;3.30;99.90;;;;;;5026096;28;20227;-75
2024/02/02 01:26:51;;;;;;;5.07;3.75;;;3.50;99.90;;;;;;5025400;28;20238;-75
2024/02/02 01:29:19;;;;;;;4.45;3.78;;;3.20;99.90;;;;;;5025706;28;20245;-75
2024/02/02 01:31:46;;;;;;;4.07;3.30;;;;;;;;;;5023833;28;20241;-75
2024/02/02 01:34:13;;;;;;;6.65;4.60;;;;;;;;;;5025395;28;20671;-75
2024/02/02 01:36:41;;;;;;;3.80;3.20;;;;;;;;;;5025663;28;20633;-75
2024/02/02 01:39:11;;;;;;;5.18;3.78;;;;;;;;;;5027548;28;20194;-75
2024/02/02 01:41:38;;;;;;;4.95;3.25;;;2.90;99.90;;;;;;5024534;28;20202;-75
2024/02/02 01:44:05;;;;;;;4.13;3.72;;;3.00;99.90;;;;;;5029301;28;20547;-75
2024/02/02 01:46:34;;;;;;;4.75;4.03;;;3.10;99.90;;;;;;5026702;28;20212;-75
2024/02/02 01:49:01;;;;;;;4.63;3.30;;;3.00;99.90;;;;;;5024024;28;20301;-75
2024/02/02 01:51:28;;;;;;;3.75;3.30;;;3.10;99.90;;;;;;5028154;28;20226;-75
2024/02/02 01:53:59;;;;;;;4.20;3.50;;;2.90;99.90;;;;;;5025300;28;20293;-75
2024/02/02 01:56:26;;;;;;;7.70;3.70;;;;;;;;;;5026416;28;20651;-75
2024/02/02 01:58:53;;;;;;;6.45;3.92;;;2.80;99.90;;;;;;5025035;28;20842;-75
2024/02/02 02:01:20;;;;;;;6.72;4.22;;;;;;;;;;5026385;28;20651;-75
2024/02/02 02:03:49;;;;;;;6.40;3.88;;;2.80;99.90;;;;;;5021745;28;20195;-75
2024/02/02 02:06:16;;;;;;;6.38;3.85;;;;;;;;;;5016482;28;20198;-75
2024/02/02 02:08:43;;;;;;;6.72;3.85;;;;;;;;;;5023659;28;20231;-75
2024/02/02 02:11:11;;;;;;;3.90;3.33;;;;;;;;;;5022588;28;20682;-75
2024/02/02 02:13:38;;;;;;;8.68;3.60;;;;;;;;;;5020831;28;20302;-75
2024/02/02 02:16:06;;;;;;;5.38;3.92;;;4.10;99.90;;;;;;5021703;28;20210;-75
2024/02/02 02:18:33;;;;;;;4.30;3.50;;;2.90;99.90;;;;;;5022663;28;20293;-75
2024/02/02 02:21:21;;;;;;;9.05;4.10;;;3.00;99.90;;;;;;5024743;28;20605;-75
2024/02/02 02:23:49;;;;;;;7.70;4.05;;;3.00;99.90;;;;;;5022280;28;20297;-75
2024/02/02 02:26:17;;;;;;;5.78;4.72;;;3.00;99.90;;;;;;5013859;28;20207;-75
2024/02/02 02:28:45;;;;;;;7.65;4.13;;;2.90;99.90;;;;;;5019559;28;20199;-75
2024/02/02 02:31:14;;;;;;;5.70;4.13;;;3.10;99.90;;;;;;5013664;28;20206;-75
2024/02/02 02:33:42;;;;;;;6.40;4.93;;;3.00;99.90;;;;;;5024922;28;20605;-75
2024/02/02 02:36:13;;;;;;;3.92;3.38;;;2.80;99.90;;;;;;5024820;28;20199;-75
2024/02/02 02:38:41;;;;;;;4.95;3.05;;;;;;;;;;5027119;28;20615;-75
2024/02/02 02:41:09;;;;;;;7.60;4.13;;;2.80;99.90;;;;;;5025994;28;20555;-75
2024/02/02 02:43:35;;;;;;;3.67;3.35;;;2.70;99.90;;;;;;5023590;28;20676;-75
2024/02/02 02:46:03;;;;;;;9.07;3.60;;;2.90;99.90;;;;;;5027683;28;20189;-75
2024/02/02 02:48:31;;;;;;;7.80;4.10;;;;;;;;;;5028714;28;20237;-75
2024/02/02 02:50:59;;;;;;;4.43;3.78;;;2.80;99.90;;;;;;5023298;28;20237;-75
2024/02/02 02:53:28;;;;;;;4.75;3.55;;;2.90;99.90;;;;;;5026360;28;20345;-75
2024/02/02 02:55:56;;;;;;;8.18;3.58;;;3.00;99.90;;;;;;5020596;28;20214;-75
2024/02/02 02:58:23;;;;;;;5.03;4.25;;;2.10;99.90;;;;;;5031956;28;20194;-75
2024/02/02 03:00:50;;;;;;;8.13;3.38;;;2.50;99.90;;;;;;5035824;28;20537;-75
2024/02/02 03:03:17;;;;;;;4.85;3.42;;;3.10;99.90;;;;;;5013414;28;20199;-75
2024/02/02 03:05:44;;;;;;;8.32;3.72;;;3.60;99.90;;;;;;5017328;28;20490;-75
2024/02/02 03:08:11;;;;;;;7.03;3.50;;;3.10;99.90;;;;;;5027090;28;20200;-75
2024/02/02 03:10:41;;;;;;;4.50;3.30;;;3.10;99.90;;;;;;5030469;28;20203;-75
2024/02/02 03:13:10;;;;;;;3.83;3.35;;;3.20;99.90;;;;;;5030201;28;20230;-75
2024/02/02 03:15:39;;;;;;;4.10;3.50;;;3.50;99.90;;;;;;5016736;28;20282;-75
2024/02/02 03:18:10;;;;;;;4.43;3.28;;;3.60;99.90;;;;;;5022509;28;20206;-75
2024/02/02 03:20:37;;;;;;;4.32;3.92;;;3.00;99.90;;;;;;5026218;28;20212;-75
2024/02/02 03:23:05;;;;;;;5.40;3.55;;;3.10;99.90;;;;;;5024389;28;20199;-75
2024/02/02 03:25:33;;;;;;;6.28;3.22;;;;;;;;;;5034167;28;20200;-75
2024/02/02 03:28:02;;;;;;;4.90;3.35;;;;;;;;;;5028938;28;20235;-75
2024/02/02 03:30:29;;;;;;;6.35;3.30;;;3.10;99.90;;;;;;5024343;28;20222;-75
2024/02/02 03:32:58;;;;;;;4.05;3.50;;;3.30;99.90;;;;;;5026958;28;20251;-75
2024/02/02 03:35:25;;;;;;;5.55;2.78;;;3.50;99.90;;;;;;5022625;27;20206;-75
2024/02/02 03:37:53;;;;;;;7.78;3.47;;;;;;;;;;5023529;28;20256;-75
2024/02/02 03:40:21;;;;;;;4.35;3.25;;;3.50;99.90;;;;;;5032471;28;20214;-75
2024/02/02 03:42:49;;;;;;;5.05;3.58;;;;;;;;;;5022330;28;20206;-75
2024/02/02 03:45:17;;;;;;;5.68;3.95;;;4.10;99.90;;;;;;5029375;28;20197;-75
2024/02/02 03:47:46;;;;;;;6.78;3.45;;;;;;;;;;5025049;28;20200;-75
2024/02/02 03:50:13;;;;;;;5.80;3.70;;;3.40;99.90;;;;;;5028290;28;20307;-75
2024/02/02 03:52:40;;;;;;;10.80;4.93;;;3.50;99.90;;;;;;5032838;28;20234;-75
2024/02/02 03:55:07;;;;;;;5.28;3.63;;;3.50;99.90;;;;;;5024183;28;20204;-75
2024/02/02 03:57:35;;;;;;;5.72;4.05;;;3.50;99.90;;;;;;5032358;28;20202;-75
2024/02/02 04:00:04;;;;;;;6.22;4.25;;;3.40;99.90;;;;;;5024130;27;20198;-75
2024/02/02 04:02:32;;;;;;;9.70;3.70;;;3.30;99.90;;;;;;5031429;28;20199;-76
2024/02/02 04:04:59;;;;;;;6.05;4.55;;;;;;;;;;5018213;28;20295;-75
2024/02/02 04:07:26;;;;;;;5.55;3.83;;;;;;;;;;5032287;28;20223;-75
2024/02/02 04:09:54;;;;;;;4.38;3.65;;;;;;;;;;5025142;28;20283;-75
2024/02/02 04:12:20;;;;;;;7.78;4.15;;;3.40;99.90;;;;;;5022386;28;20228;-75
2024/02/02 04:14:47;;;;;;;5.10;4.00;;;3.50;99.90;;;;;;5028633;28;20236;-75
2024/02/02 04:17:14;;;;;;;6.65;5.35;;;3.50;99.90;;;;;;5023862;28;20328;-75
2024/02/02 04:19:44;;;;;;;8.10;4.55;;;3.30;99.90;;;;;;5031263;28;20188;-75
2024/02/02 04:22:11;;;;;;;6.10;4.05;;;;;;;;;;5027795;28;20200;-75
2024/02/02 04:24:38;;;;;;;5.95;4.10;;;3.30;99.90;;;;;;5025003;28;20273;-75
2024/02/02 04:27:05;;;;;;;6.63;4.60;;;3.40;99.90;;;;;;5050423;27;20350;-75
2024/02/02 04:29:32;;;;;;;5.35;4.00;;;3.30;99.90;;;;;;5041972;27;20210;-75
2024/02/02 04:31:59;;;;;;;6.38;4.53;;;3.50;99.90;;;;;;5029684;28;20238;-75
2024/02/02 04:34:26;;;;;;;4.13;3.65;;;;;;;;;;5028724;28;20239;-76
2024/02/02 04:36:54;;;;;;;5.80;4.45;;;3.40;99.90;;;;;;5022549;28;20295;-75
2024/02/02 04:39:21;;;;;;;8.77;5.43;;;3.60;99.90;;;;;;5024403;28;20210;-75
2024/02/02 04:41:48;;;;;;;12.70;5.07;;;;;;;;;;5039386;27;20245;-75
2024/02/02 04:44:15;;;;;;;5.93;4.07;;;3.30;99.90;;;;;;5027349;28;20203;-75
2024/02/02 04:46:42;;;;;;;4.82;4.32;;;;;;;;;;5032292;28;20230;-75
2024/02/02 04:49:09;;;;;;;5.25;4.38;;;;;;;;;;5026851;28;20242;-75
2024/02/02 04:51:36;;;;;;;6.10;4.65;;;3.50;99.90;;;;;;5025861;28;20236;-75
2024/02/02 04:54:05;;;;;;;7.20;4.40;;;3.60;99.90;;;;;;5030581;28;20231;-76
2024/02/02 04:56:31;;;;;;;7.25;4.43;;;3.60;99.90;;;;;;5029591;28;20283;-75
2024/02/02 04:58:58;;;;;;;12.18;5.25;;;3.70;99.90;;;;;;5031536;28;20231;-75
2024/02/02 05:01:25;;;;;;;7.97;5.20;;;3.50;99.90;;;;;;5021240;28;20390;-75
2024/02/02 05:03:53;;;;;;;7.78;5.80;;;;;;;;;;5017206;28;20552;-75
2024/02/02 05:06:19;;;;;;;5.93;5.00;;;3.50;99.90;;;;;;5020118;28;20203;-75
2024/02/02 05:08:47;;;;;;;8.23;5.60;;;;;;;;;;5019043;28;20292;-76
2024/02/02 05:11:15;;;;;;;6.32;5.28;;;4.30;99.90;;;;;;5028568;28;20647;-75
2024/02/02 05:13:42;;;;;;;5.72;4.25;;;;;;;;;;5028091;28;20325;-75
2024/02/02 05:16:09;;;;;;;5.60;4.85;;;4.00;99.90;;;;;;5022363;28;20227;-75
2024/02/02 05:18:36;;;;;;;5.10;4.60;;;3.90;99.90;;;;;;5029868;28;20235;-75
2024/02/02 05:21:03;;;;;;;5.93;5.00;;;3.80;99.90;;;;;;5020715;28;20246;-75
2024/02/02 05:23:30;;;;;;;6.45;4.95;;;3.80;99.90;;;;;;5024756;28;20211;-75
2024/02/02 05:25:56;;;;;;;9.88;6.43;;;3.70;99.90;;;;;;5030805;28;20268;-75
2024/02/02 05:28:25;;;;;;;7.30;5.55;;;3.80;99.90;;;;;;5029487;28;20250;-75
2024/02/02 05:30:52;;;;;;;8.52;5.00;;;;;;;;;;5029576;28;20636;-76
2024/02/02 05:33:19;;;;;;;6.22;5.47;;;3.80;99.90;;;;;;5019773;28;20784;-75
2024/02/02 05:35:46;;;;;;;10.00;6.00;;;;;;;;;;5030590;28;20661;-75
2024/02/02 05:38:13;;;;;;;8.98;6.80;;;;;;;;;;5027686;28;20197;-75
2024/02/02 05:40:40;;;;;;;10.85;5.88;;;4.00;99.90;;;;;;5022671;28;20622;-75
2024/02/02 05:43:08;;;;;;;8.38;6.60;;;;;;;;;;5017300;28;20288;-75
2024/02/02 05:45:36;;;;;;;8.80;5.70;;;4.10;99.90;;;;;;5023096;28;20214;-76
2024/02/02 05:48:03;;;;;;;8.93;5.75;;;4.00;99.90;;;;;;5027734;28;20265;-76
2024/02/02 05:50:30;;;;;;;7.18;6.05;;;;;;;;;;5024716;28;20246;-76
2024/02/02 05:52:57;;;;;;;7.85;6.15;;;4.30;99.90;;;;;;5027366;28;20311;-76
2024/02/02 05:55:24;;;;;;;7.45;5.90;;;4.20;99.90;;;;;;5027249;28;20299;-76
2024/02/02 05:57:51;;;;;;;7.47;6.20;;;4.30;99.90;;;;;;5020844;28;20287;-76
2024/02/02 06:00:18;;;;;;;7.45;5.55;;;4.40;99.90;;;;;;5029565;28;20232;-75
2024/02/02 06:02:47;;;;;;;8.20;5.90;;;4.40;99.90;;;;;;5022903;28;20220;-74
2024/02/02 06:05:14;;;;;;;8.98;7.03;;;;;;;;;;5015345;28;20193;-74
2024/02/02 06:07:42;;;;;;;13.38;7.38;;;;;;;;;;5002882;28;20197;-77
2024/02/02 06:10:09;;;;;;;6.47;5.75;;;4.20;99.90;;;;;;5011553;28;20292;-75
2024/02/02 06:12:36;;;;;;;10.23;5.55;;;4.20;99.90;;;;;;5009948;28;20328;-75
2024/02/02 06:15:04;;;;;;;10.18;6.47;;;4.10;99.90;;;;;;5023485;28;20205;-74
2024/02/02 06:17:31;;;;;;;10.70;8.15;;;4.40;99.90;;;;;;5053090;28;20207;-74
2024/02/02 06:19:59;;;;;;;7.47;6.18;;;4.10;99.90;;;;;;5021690;28;20200;-74
2024/02/02 06:22:26;;;;;;;6.60;5.63;;;4.10;99.90;;;;;;5025210;28;20227;-75
2024/02/02 06:24:53;;;;;;;6.82;6.05;;;4.00;99.90;;;;;;5025778;28;20261;-75
2024/02/02 06:27:22;;;;;;;7.90;5.70;;;;;;;;;;5024451;28;20285;-73
2024/02/02 06:29:50;;;;;;;9.27;6.68;;;;;;;;;;5019364;28;20240;-74
2024/02/02 06:32:20;;;;;;;8.93;8.02;;;;;;;;;;5017016;28;20400;-74
2024/02/02 06:34:48;;;;;;;13.18;7.90;;;;;;;;;;5022182;28;20215;-75
2024/02/02 06:37:17;;;;;;;16.30;10.13;;;4.60;99.90;;;;;;5013174;28;20202;-75
2024/02/02 06:39:46;;;;;;;13.02;9.73;;;4.40;99.90;;;;;;5014233;28;20624;-75
2024/02/02 06:42:13;;;;;;;14.18;11.00;;;;;;;;;;5009406;28;20258;-75
2024/02/02 06:44:40;;;;;;;10.27;7.68;;;;;;;;;;5020622;28;20597;-74
2024/02/02 06:47:07;;;;;;;9.38;7.20;;;;;;;;;;5012676;28;20603;-75
2024/02/02 06:49:35;;;;;;;7.97;7.00;;;4.50;99.90;;;;;;5011560;28;20705;-74
2024/02/02 06:52:02;;;;;;;9.23;7.10;;;;;;;;;;5023505;28;20329;-74
2024/02/02 06:54:30;;;;;;;8.73;6.90;;;3.30;99.90;;;;;;5018536;28;20259;-75
2024/02/02 06:56:58;;;;;;;11.60;8.65;;;;;;;;;;5026333;28;20228;-74
2024/02/02 06:59:24;;;;;;;10.32;7.80;;;4.60;99.90;;;;;;5019449;28;20308;-75
2024/02/02 07:01:52;;;;;;;8.23;7.10;;;4.60;99.90;;;;;;5021723;28;20225;-74
2024/02/02 07:04:19;;;;;;;8.05;7.18;;;4.60;99.90;;;;;;5015901;28;20212;-74
2024/02/02 07:06:47;;;;;;;10.05;6.93;;;4.70;99.90;;;;;;5023638;28;20254;-74
2024/02/02 07:09:29;;;;;;;11.43;8.82;;;4.60;99.90;;;;;;5018404;28;20189;-75
2024/02/02 07:12:00;;;;;;;11.05;8.00;;;4.70;99.90;;;;;;5022486;28;20204;-75
2024/02/02 07:14:47;;;;;;;12.80;8.20;;;4.70;99.90;;;;;;5025192;28;20273;-75
2024/02/02 07:17:22;;;;;;;11.63;8.57;;;4.90;99.90;;;;;;5024145;28;20650;-75
2024/02/02 07:19:50;;;;;;;9.35;7.95;;;4.90;99.90;;;;;;5018999;28;20300;-75
2024/02/02 07:22:33;;;;;;;13.20;9.50;;;4.70;99.90;;;;;;5024331;28;20283;-74
2024/02/02 07:25:00;;;;;;;15.90;11.82;;;4.90;99.90;;;;;;5028304;28;20204;-75
2024/02/02 07:27:49;;;;;;;14.60;10.20;;;5.40;99.90;;;;;;5028166;28;20210;-74
2024/02/02 07:30:51;;;;;;;12.65;9.43;;;4.90;99.90;;;;;;5020460;28;20568;-75
2024/02/02 07:33:23;;;;;;;12.32;8.15;;;4.90;99.90;;;;;;5035149;28;20314;-75
2024/02/02 07:35:50;;;;;;;11.43;7.70;;;4.90;99.90;;;;;;5035488;28;20208;-75
2024/02/02 07:38:54;;;;;;;13.13;8.13;;;4.90;99.90;;;;;;5031649;28;20276;-74
2024/02/02 07:41:26;;;;;;;9.02;7.20;;;5.10;99.90;;;;;;5025509;28;20240;-75
2024/02/02 07:43:55;;;;;;;9.13;7.72;;;5.30;99.90;;;;;;5022302;28;20269;-74
2024/02/02 07:46:22;;;;;;;10.63;7.80;;;5.00;99.90;;;;;;5033487;27;20212;-73
2024/02/02 07:48:50;;;;;;;12.13;8.80;;;5.10;99.90;;;;;;5034434;28;20208;-73
2024/02/02 07:51:18;;;;;;;9.05;7.32;;;5.10;99.90;;;;;;5034477;28;20670;-73
2024/02/02 07:53:45;;;;;;;13.40;8.98;;;5.60;99.90;;;;;;5028029;28;20223;-73
2024/02/02 07:56:13;;;;;;;8.00;7.20;;;5.20;99.90;;;;;;5030827;28;20232;-73
2024/02/02 07:58:40;;;;;;;9.32;6.82;;;5.30;99.90;;;;;;5025950;28;20201;-73
2024/02/02 08:01:09;;;;;;;10.88;8.60;;;5.30;99.90;;;;;;5014135;28;20550;-73
2024/02/02 08:03:37;;;;;;;9.18;7.75;;;5.40;99.90;;;;;;5023098;27;20202;-74
2024/02/02 08:06:07;;;;;;;11.02;7.88;;;5.20;99.90;;;;;;5037737;27;20237;-73
2024/02/02 08:08:40;;;;;;;8.32;6.82;;;5.70;99.90;;;;;;5028133;28;20283;-74
2024/02/02 08:11:08;;;;;;;9.95;8.13;;;;;;;;;;5011026;28;20246;-74
2024/02/02 08:13:36;;;;;;;8.90;7.80;;;;;;;;;;5030816;28;20239;-73
2024/02/02 08:16:03;;;;;;;10.65;7.63;;;5.90;99.90;;;;;;5023872;28;20201;-73
2024/02/02 08:18:32;;;;;;;9.80;7.43;;;5.50;99.90;;;;;;5027064;28;20205;-74
2024/02/02 08:21:00;;;;;;;14.05;7.82;;;5.60;99.90;;;;;;5032068;28;20687;-74
2024/02/02 08:23:27;;;;;;;9.10;8.10;;;5.60;99.90;;;;;;5021614;28;20196;-74
2024/02/02 08:25:54;;;;;;;12.23;8.13;;;5.40;99.90;;;;;;5025575;27;20669;-74
2024/02/02 08:28:21;;;;;;;10.70;7.10;;;5.70;99.90;;;;;;5062329;27;20228;-73
2024/02/02 08:30:48;;;;;;;10.30;7.40;;;5.70;99.90;;;;;;5031059;28;20253;-73
2024/02/02 08:33:15;;;;;;;6.95;5.90;;;5.70;99.90;;;;;;5018024;28;20270;-74
2024/02/02 08:35:43;;;;;;;8.63;7.20;;;6.00;99.90;;;;;;5026416;28;20358;-73
2024/02/02 08:38:12;;;;;;;9.90;6.70;;;;;;;;;;5012281;28;20197;-73
2024/02/02 08:40:42;;;;;;;6.90;6.20;;;5.70;99.90;;;;;;5016459;28;20201;-74
2024/02/02 08:43:10;;;;;;;9.07;6.53;;;;;;;;;;5027563;28;20197;-74
2024/02/02 08:46:03;;;;;;;7.32;6.18;;;5.90;99.90;;;;;;5027505;28;20210;-73
2024/02/02 08:48:38;;;;;;;7.00;6.25;;;5.90;99.90;;;;;;5025239;28;20219;-73
2024/02/02 08:51:45;;;;;;;9.38;6.47;;;6.20;99.90;;;;;;5025387;28;20205;-73
2024/02/02 08:54:38;;;;;;;8.68;6.40;;;6.00;99.90;;;;;;5022273;27;20307;-73
2024/02/02 08:57:36;;;;;;;7.82;5.78;;;6.10;99.90;;;;;;5028296;28;20269;-74
2024/02/02 09:00:14;;;;;;;6.78;5.97;;;6.00;99.90;;;;;;5049169;27;20196;-73
2024/02/02 09:03:01;;;;;;;7.68;5.38;;;;;;;;;;5028452;28;20224;-74
2024/02/02 09:05:38;;;;;;;9.05;6.50;;;6.20;99.90;;;;;;5015428;28;20209;-73
2024/02/02 09:08:21;;;;;;;5.75;4.90;;;6.10;99.90;;;;;;5014932;28;20220;-73
2024/02/02 09:11:23;;;;;;;5.47;4.65;;;6.30;99.90;;;;;;5020728;28;20243;-74
2024/02/02 09:14:10;;;;;;;6.55;4.55;;;6.30;99.90;;;;;;5022557;28;20220;-76
2024/02/02 09:16:42;;;;;;;6.93;6.10;;;6.30;99.90;;;;;;5027075;28;20204;-74
2024/02/02 09:19:20;;;;;;;4.97;4.28;;;6.50;99.90;;;;;;5022652;28;20201;-74
2024/02/02 09:21:47;;;;;;;6.40;5.60;;;6.30;99.90;;;;;;5025880;28;20205;-74
2024/02/02 09:24:27;;;;;;;5.90;5.30;;;6.60;99.90;;;;;;5023280;28;20193;-74
2024/02/02 09:26:58;;;;;;;6.47;4.80;;;6.50;99.90;;;;;;5025478;28;20206;-74
2024/02/02 09:29:25;;;;;;;6.40;4.60;;;6.70;99.90;;;;;;5018142;27;20627;-74
2024/02/02 09:31:52;;;;;;;6.30;5.13;;;;;;;;;;5018618;28;20201;-74
2024/02/02 09:34:24;;;;;;;6.07;4.72;;;6.60;99.90;;;;;;5017501;28;20667;-74
2024/02/02 09:36:51;;;;;;;5.03;4.43;;;6.80;99.90;;;;;;5019537;28;20202;-74
2024/02/02 09:39:47;;;;;;;6.15;5.10;;;6.70;99.90;;;;;;5024241;28;20632;-74
2024/02/02 09:42:36;;;;;;;4.90;4.40;;;6.90;99.90;;;;;;5023191;28;20266;-74
2024/02/02 09:45:08;;;;;;;6.00;5.38;;;7.60;99.90;;;;;;5020315;28;20253;-74
2024/02/02 09:47:54;;;;;;;5.85;5.13;;;7.10;99.90;;;;;;5013801;28;20206;-74
2024/02/02 09:50:33;;;;;;;6.13;5.20;;;7.00;99.90;;;;;;5008056;28;20293;-74
2024/02/02 09:53:38;;;;;;;5.20;4.70;;;7.20;99.90;;;;;;5013216;28;20623;-74
2024/02/02 09:56:11;;;;;;;4.87;4.20;;;6.80;99.90;;;;;;5050345;28;20659;-74
2024/02/02 09:58:49;;;;;;;5.90;4.83;;;7.10;99.90;;;;;;5025572;28;20673;-74
2024/02/02 10:01:32;;;;;;;7.30;5.80;;;7.40;99.90;;;;;;5020809;28;20631;-75
2024/02/02 10:04:13;;;;;;;6.10;5.50;;;6.90;99.90;;;;;;5025569;28;20319;-74
2024/02/02 10:06:47;;;;;;;5.87;5.20;;;6.60;99.90;;;;;;5025515;28;20676;-74
2024/02/02 10:09:40;;;;;;;5.50;4.60;;;7.10;99.90;;;;;;5023215;28;20850;-74
2024/02/02 10:12:15;;;;;;;6.13;5.17;;;6.80;99.90;;;;;;5018142;28;21164;-74
2024/02/02 10:15:19;;;;;;;7.93;5.63;;;7.10;99.90;;;;;;5024659;28;20763;-74
2024/02/02 10:18:07;;;;;;;5.00;4.23;;;7.20;99.90;;;;;;5022483;28;21175;-74
2024/02/02 10:20:38;;;;;;;13.60;4.87;;;7.30;99.90;;;;;;5024439;28;20680;-74
2024/02/02 10:23:28;;;;;;;6.53;3.90;;;7.00;99.90;;;;;;5015228;28;21240;-74
2024/02/02 10:26:10;;;;;;;4.37;3.87;;;7.00;99.90;;;;;;5025312;28;20696;-74
2024/02/02 10:28:48;;;;;;;5.33;3.80;;;6.50;99.90;;;;;;5025019;28;21191;-74
2024/02/02 10:31:30;;;;;;;4.50;4.10;;;7.20;99.90;;;;;;5025539;28;21019;-74
2024/02/02 10:34:16;;;;;;;3.93;3.43;;;6.00;99.90;;;;;;5035278;28;21242;-74
2024/02/02 10:36:57;;;;;;;4.77;3.77;;;7.20;99.90;;;;;;5032792;28;20675;-74
2024/02/02 10:39:45;;;;;;;4.10;3.70;;;7.40;99.90;;;;;;5023969;28;21019;-74
2024/02/02 10:42:22;;;;;;;6.80;4.00;;;7.40;99.90;;;;;;5019782;28;20754;-75
2024/02/02 10:44:59;;;;;;;4.10;3.40;;;7.30;99.90;;;;;;5020436;28;20634;-75
2024/02/02 10:47:42;;;;;;;4.80;3.40;;;7.30;99.90;;;;;;5026690;28;20656;-75
2024/02/02 10:50:20;;;;;;;4.63;3.50;;;7.50;99.90;;;;;;5031152;28;20739;-75
2024/02/02 10:52:58;;;;;;;4.33;3.10;;;7.60;99.90;;;;;;5025397;28;20616;-75
2024/02/02 10:55:42;;;;;;;6.17;3.50;;;7.70;99.90;;;;;;5029128;28;21163;-75
2024/02/02 10:58:21;;;;;;;3.33;2.93;;;7.90;99.90;;;;;;5034225;28;20727;-75
2024/02/02 11:00:55;;;;;;;4.17;3.00;;;7.90;99.90;;;;;;5022242;28;20759;-75
2024/02/02 11:03:31;;;;;;;4.97;3.70;;;8.20;99.90;;;;;;5028553;28;21233;-76
2024/02/02 11:06:09;;;;;;;3.87;3.20;;;7.80;99.90;;;;;;5028083;28;20671;-76
2024/02/02 11:08:44;;;;;;;3.30;3.00;;;7.70;99.90;;;;;;5031623;28;20655;-76
2024/02/02 11:11:13;;;;;;;3.97;3.03;;;8.00;99.90;;;;;;5029615;28;20873;-77
2024/02/02 11:13:49;;;;;;;3.40;2.47;;;8.00;99.90;;;;;;5028838;28;20663;-76
2024/02/02 11:16:31;;;;;;;2.80;2.53;;;7.50;99.90;;;;;;5031548;28;20716;-75
2024/02/02 11:19:15;;;;;;;3.90;2.67;;;8.80;99.90;;;;;;5034304;28;20698;-73
2024/02/02 11:22:03;;;;;;;3.00;2.70;;;8.20;99.90;;;;;;5031170;28;21053;-75
2024/02/02 11:24:40;;;;;;;2.63;2.43;;;8.20;99.90;;;;;;5026111;28;20618;-76
2024/02/02 11:27:13;;;;;;;7.73;2.57;;;8.40;99.90;;;;;;5026317;28;20614;-76
2024/02/02 11:29:50;;;;;;;3.20;2.30;;;8.30;99.90;;;;;;5032230;28;21036;-75
2024/02/02 11:32:34;;;;;;;3.10;2.23;;;8.60;99.90;;;;;;5027777;28;20721;-76
2024/02/02 11:35:10;;;;;;;2.10;1.93;;;8.50;99.90;;;;;;5033563;28;20669;-76
2024/02/02 11:37:53;;;;;;;3.37;2.60;;;8.50;99.90;;;;;;5013885;28;20640;-76
2024/02/02 11:40:24;;;;;;;3.07;2.53;;;8.30;99.90;;;;;;5037210;27;20683;-75
2024/02/02 11:42:53;;;;;;;6.63;2.50;;;;;;;;;;5036612;27;20626;-76
2024/02/02 11:45:24;;;;;;;2.50;2.37;;;8.90;99.90;;;;;;5024637;28;20696;-75
2024/02/02 11:47:58;;;;;;;3.27;2.37;;;8.80;99.90;;;;;;5029157;28;20627;-76
2024/02/02 11:50:30;;;;;;;2.30;2.10;;;9.10;99.90;;;;;;5046126;27;20729;-75
2024/02/02 11:53:06;;;;;;;3.00;2.03;;;9.00;98.80;;;;;;5031337;27;21057;-74
2024/02/02 11:55:39;;;;;;;1.93;1.67;;;9.00;99.90;;;;;;5037980;27;20742;-76
2024/02/02 11:58:08;;;;;;;1.80;1.67;;;9.00;99.90;;;;;;5020291;27;20632;-75
2024/02/02 12:00:58;;;;;;;2.00;1.50;;;9.00;99.90;;;;;;5015255;27;20734;-75
2024/02/02 12:03:33;;;;;;;1.80;1.60;;;9.10;99.90;;;;;;5024650;28;20669;-75
2024/02/02 12:06:10;;;;;;;1.27;1.17;;;9.10;96.90;;;;;;5054017;27;20626;-76
2024/02/02 12:08:45;;;;;;;1.70;1.47;;;9.00;99.90;;;;;;5016235;28;20665;-76
2024/02/02 12:11:14;;;;;;;1.50;1.40;;;9.30;99.90;;;;;;5048790;27;20646;-77
2024/02/02 12:13:44;;;;;;;2.07;1.70;;;;;;;;;;5028640;28;20637;-76
2024/02/02 12:16:11;;;;;;;3.30;2.10;;;;;;;;;;5028810;27;21156;-77
2024/02/02 12:18:39;;;;;;;3.30;2.00;;;;;;;;;;5026293;28;20752;-76
2024/02/02 12:21:15;;;;;;;2.63;2.43;;;9.60;99.90;;;;;;5031686;27;21291;-76
2024/02/02 12:23:42;;;;;;;1.50;1.40;;;;;;;;;;5027195;28;20736;-76
2024/02/02 12:26:09;;;;;;;2.87;1.50;;;;;;;;;;5046140;27;20625;-76
2024/02/02 12:28:36;;;;;;;4.33;1.70;;;9.50;99.90;;;;;;5025208;28;20774;-77
2024/02/02 12:31:03;;;;;;;2.80;2.13;;;9.90;95.40;;;;;;5025637;27;20628;-76
2024/02/02 12:33:30;;;;;;;1.30;1.20;;;10.00;99.90;;;;;;5026644;28;20746;-78
2024/02/02 12:35:58;;;;;;;2.37;1.20;;;9.80;99.90;;;;;;5042691;27;20664;-78
2024/02/02 12:38:27;;;;;;;2.60;1.67;;;9.90;94.20;;;;;;5025134;27;21046;-78
2024/02/02 12:40:56;;;;;;;1.50;1.20;;;;;;;;;;5043825;27;20618;-78
2024/02/02 12:43:25;;;;;;;1.57;1.40;;;9.80;96.70;;;;;;5024264;28;20689;-78
2024/02/02 12:45:53;;;;;;;1.37;1.17;;;9.80;99.90;;;;;;5009904;28;20656;-78
2024/02/02 12:48:20;;;;;;;1.30;1.20;;;9.80;93.20;;;;;;5017175;28;20659;-78
2024/02/02 12:50:49;;;;;;;1.53;1.40;;;9.80;99.90;;;;;;5037809;27;20725;-77
2024/02/02 12:53:16;;;;;;;1.13;1.03;;;;;;;;;;5022296;28;20670;-78
2024/02/02 12:55:45;;;;;;;1.57;1.47;;;9.80;99.90;;;;;;5033947;27;20681;-77
2024/02/02 12:58:12;;;;;;;0.90;0.80;;;;;;;;;;5022516;28;20625;-77
2024/02/02 13:00:39;;;;;;;1.27;1.17;;;10.00;99.90;;;;;;5017137;28;20734;-77
2024/02/02 13:03:09;;;;;;;1.70;1.27;;;10.50;99.90;;;;;;5025984;28;20631;-77
2024/02/02 13:05:37;;;;;;;2.60;1.00;;;10.10;99.90;;;;;;5025382;28;20728;-76
2024/02/02 13:08:04;;;;;;;1.13;1.03;;;10.10;93.20;;;;;;5026737;28;20658;-77
2024/02/02 13:10:39;;;;;;;1.23;1.13;;;10.20;98.20;;;;;;5027428;28;20695;-76
2024/02/02 13:13:14;;;;;;;2.53;1.13;;;10.20;91.90;;;;;;5026278;28;21212;-77
2024/02/02 13:15:42;;;;;;;1.23;1.13;;;10.30;96.90;;;;;;5026003;28;20684;-76
2024/02/02 13:18:13;;;;;;;1.47;0.90;;;10.10;99.90;;;;;;5026330;28;20626;-77
2024/02/02 13:20:44;;;;;;;1.53;1.43;;;;;;;;;;5023932;28;20701;-77
2024/02/02 13:23:20;;;;;;;1.30;1.20;;;10.20;91.70;;;;;;5012462;28;20635;-77
2024/02/02 13:25:51;;;;;;;1.20;1.10;;;10.20;91.00;;;;;;5013694;28;20630;-77
2024/02/02 13:28:20;;;;;;;1.20;1.10;;;10.10;91.00;;;;;;5052745;27;20682;-77
2024/02/02 13:30:54;;;;;;;2.30;1.33;;;9.90;93.00;;;;;;5016516;28;20829;-77
2024/02/02 13:33:22;;;;;;;3.43;1.20;;;10.10;93.30;;;;;;5027401;27;20618;-77
2024/02/02 13:35:54;;;;;;;4.73;1.30;;;10.10;90.50;;;;;;5023691;28;21276;-77
2024/02/02 13:38:22;;;;;;;2.20;1.33;;;;;;;;;;5024520;28;21174;-76